sensor_id;sensor_type;location;lat;lon;timestamp;P1;durP1;ratioP1;P2;durP2;ratioP2
76818;SDS011;65772;51.096;17.006;2023-02-28T00:00:33;18.40;;;7.40;;
76818;SDS011;65772;51.096;17.006;2023-02-28T00:03:04;14.60;;;6.80;;
76818;SDS011;65772;51.096;17.006;2023-02-28T00:05:35;14.10;;;6.40;;
76818;SDS011;65772;51.096;17.006;2023-02-28T00:08:06;15.90;;;7.10;;
76818;SDS011;65772;51.096;17.006;2023-02-28T00:10:36;24.40;;;9.00;;
76818;SDS011;65772;51.096;17.006;2023-02-28T00:13:07;28.70;;;11.60;;
76818;SDS011;65772;51.096;17.006;2023-02-28T00:15:38;24.70;;;10.10;;
76818;SDS011;65772;51.096;17.006;2023-02-28T00:18:09;24.70;;;10.60;;
76818;SDS011;65772;51.096;17.006;2023-02-28T00:20:41;22.00;;;8.70;;
76818;SDS011;65772;51.096;17.006;2023-02-28T00:23:12;19.60;;;8.90;;
76818;SDS011;65772;51.096;17.006;2023-02-28T00:25:42;19.70;;;8.10;;
76818;SDS011;65772;51.096;17.006;2023-02-28T00:28:13;18.80;;;8.50;;
76818;SDS011;65772;51.096;17.006;2023-02-28T00:30:44;21.30;;;8.30;;
76818;SDS011;65772;51.096;17.006;2023-02-28T00:33:15;17.70;;;6.90;;
76818;SDS011;65772;51.096;17.006;2023-02-28T00:35:46;15.10;;;6.70;;
76818;SDS011;65772;51.096;17.006;2023-02-28T00:38:16;16.60;;;6.60;;
76818;SDS011;65772;51.096;17.006;2023-02-28T00:40:47;19.30;;;7.70;;
76818;SDS011;65772;51.096;17.006;2023-02-28T00:43:17;14.90;;;7.40;;
76818;SDS011;65772;51.096;17.006;2023-02-28T00:45:48;17.10;;;7.00;;
76818;SDS011;65772;51.096;17.006;2023-02-28T00:48:18;17.30;;;7.30;;
76818;SDS011;65772;51.096;17.006;2023-02-28T00:50:49;16.80;;;8.20;;
76818;SDS011;65772;51.096;17.006;2023-02-28T00:53:19;16.50;;;7.70;;
76818;SDS011;65772;51.096;17.006;2023-02-28T00:55:50;17.10;;;7.80;;
76818;SDS011;65772;51.096;17.006;2023-02-28T00:58:21;15.90;;;7.10;;
76818;SDS011;65772;51.096;17.006;2023-02-28T01:00:52;16.70;;;7.40;;
76818;SDS011;65772;51.096;17.006;2023-02-28T01:03:23;13.80;;;7.00;;
76818;SDS011;65772;51.096;17.006;2023-02-28T01:05:54;16.40;;;7.30;;
76818;SDS011;65772;51.096;17.006;2023-02-28T01:08:25;19.80;;;9.20;;
76818;SDS011;65772;51.096;17.006;2023-02-28T01:10:55;19.60;;;9.10;;
76818;SDS011;65772;51.096;17.006;2023-02-28T01:13:26;19.90;;;9.30;;
76818;SDS011;65772;51.096;17.006;2023-02-28T01:15:58;23.40;;;9.90;;
76818;SDS011;65772;51.096;17.006;2023-02-28T01:18:29;18.70;;;7.80;;
76818;SDS011;65772;51.096;17.006;2023-02-28T01:21:04;19.20;;;9.00;;
76818;SDS011;65772;51.096;17.006;2023-02-28T01:23:35;17.80;;;7.40;;
76818;SDS011;65772;51.096;17.006;2023-02-28T01:26:06;16.80;;;7.70;;
76818;SDS011;65772;51.096;17.006;2023-02-28T01:28:39;15.90;;;6.60;;
76818;SDS011;65772;51.096;17.006;2023-02-28T01:31:10;16.60;;;8.00;;
76818;SDS011;65772;51.096;17.006;2023-02-28T01:33:41;19.60;;;7.50;;
76818;SDS011;65772;51.096;17.006;2023-02-28T01:36:12;18.50;;;7.60;;
76818;SDS011;65772;51.096;17.006;2023-02-28T01:38:43;17.20;;;6.90;;
76818;SDS011;65772;51.096;17.006;2023-02-28T01:41:17;15.30;;;7.50;;
76818;SDS011;65772;51.096;17.006;2023-02-28T01:43:59;18.40;;;8.50;;
76818;SDS011;65772;51.096;17.006;2023-02-28T01:46:33;15.20;;;6.60;;
76818;SDS011;65772;51.096;17.006;2023-02-28T01:49:06;18.80;;;7.30;;
76818;SDS011;65772;51.096;17.006;2023-02-28T01:51:42;14.50;;;7.10;;
76818;SDS011;65772;51.096;17.006;2023-02-28T01:54:20;14.00;;;6.60;;
76818;SDS011;65772;51.096;17.006;2023-02-28T01:56:53;15.70;;;7.90;;
76818;SDS011;65772;51.096;17.006;2023-02-28T01:59:31;21.40;;;9.70;;
76818;SDS011;65772;51.096;17.006;2023-02-28T02:02:06;24.50;;;9.00;;
76818;SDS011;65772;51.096;17.006;2023-02-28T02:04:37;19.80;;;10.00;;
76818;SDS011;65772;51.096;17.006;2023-02-28T02:07:14;18.00;;;8.90;;
76818;SDS011;65772;51.096;17.006;2023-02-28T02:09:45;23.30;;;9.70;;
76818;SDS011;65772;51.096;17.006;2023-02-28T02:12:18;22.60;;;10.10;;
76818;SDS011;65772;51.096;17.006;2023-02-28T02:15:02;20.50;;;9.00;;
76818;SDS011;65772;51.096;17.006;2023-02-28T02:17:43;19.80;;;9.40;;
76818;SDS011;65772;51.096;17.006;2023-02-28T02:20:22;18.40;;;8.90;;
76818;SDS011;65772;51.096;17.006;2023-02-28T02:23:23;17.30;;;8.10;;
76818;SDS011;65772;51.096;17.006;2023-02-28T02:35:09;15.70;;;7.10;;
76818;SDS011;65772;51.096;17.006;2023-02-28T02:37:45;19.60;;;8.60;;
76818;SDS011;65772;51.096;17.006;2023-02-28T02:40:22;17.20;;;7.50;;
76818;SDS011;65772;51.096;17.006;2023-02-28T02:42:59;20.30;;;8.50;;
76818;SDS011;65772;51.096;17.006;2023-02-28T02:45:36;16.70;;;8.50;;
76818;SDS011;65772;51.096;17.006;2023-02-28T02:48:11;19.00;;;8.20;;
76818;SDS011;65772;51.096;17.006;2023-02-28T02:50:47;16.70;;;8.20;;
76818;SDS011;65772;51.096;17.006;2023-02-28T02:53:21;15.60;;;6.70;;
76818;SDS011;65772;51.096;17.006;2023-02-28T02:55:57;16.30;;;7.70;;
76818;SDS011;65772;51.096;17.006;2023-02-28T02:58:31;13.30;;;7.50;;
76818;SDS011;65772;51.096;17.006;2023-02-28T03:01:10;16.90;;;7.80;;
76818;SDS011;65772;51.096;17.006;2023-02-28T03:03:57;18.10;;;8.10;;
76818;SDS011;65772;51.096;17.006;2023-02-28T03:06:30;18.80;;;8.30;;
76818;SDS011;65772;51.096;17.006;2023-02-28T03:09:00;16.20;;;8.10;;
76818;SDS011;65772;51.096;17.006;2023-02-28T03:11:32;17.10;;;7.80;;
76818;SDS011;65772;51.096;17.006;2023-02-28T03:14:07;12.80;;;6.40;;
76818;SDS011;65772;51.096;17.006;2023-02-28T03:19:56;18.20;;;6.60;;
76818;SDS011;65772;51.096;17.006;2023-02-28T03:22:43;15.40;;;7.00;;
76818;SDS011;65772;51.096;17.006;2023-02-28T03:25:22;17.70;;;8.00;;
76818;SDS011;65772;51.096;17.006;2023-02-28T03:28:02;16.70;;;7.00;;
76818;SDS011;65772;51.096;17.006;2023-02-28T03:30:40;18.30;;;7.40;;
76818;SDS011;65772;51.096;17.006;2023-02-28T03:33:19;19.30;;;8.20;;
76818;SDS011;65772;51.096;17.006;2023-02-28T03:35:55;14.60;;;7.00;;
76818;SDS011;65772;51.096;17.006;2023-02-28T03:38:31;16.80;;;8.20;;
76818;SDS011;65772;51.096;17.006;2023-02-28T03:41:10;21.20;;;8.60;;
76818;SDS011;65772;51.096;17.006;2023-02-28T03:43:46;17.20;;;8.00;;
76818;SDS011;65772;51.096;17.006;2023-02-28T03:46:23;22.20;;;8.10;;
76818;SDS011;65772;51.096;17.006;2023-02-28T03:48:59;20.00;;;8.90;;
76818;SDS011;65772;51.096;17.006;2023-02-28T03:51:32;19.40;;;8.30;;
76818;SDS011;65772;51.096;17.006;2023-02-28T03:54:05;21.00;;;9.00;;
76818;SDS011;65772;51.096;17.006;2023-02-28T03:56:39;19.50;;;9.40;;
76818;SDS011;65772;51.096;17.006;2023-02-28T03:59:14;18.20;;;8.80;;
76818;SDS011;65772;51.096;17.006;2023-02-28T04:01:49;19.10;;;8.80;;
76818;SDS011;65772;51.096;17.006;2023-02-28T04:04:20;20.70;;;9.50;;
76818;SDS011;65772;51.096;17.006;2023-02-28T04:06:51;19.50;;;9.30;;
76818;SDS011;65772;51.096;17.006;2023-02-28T04:09:29;20.60;;;9.60;;
76818;SDS011;65772;51.096;17.006;2023-02-28T04:12:00;19.30;;;9.30;;
76818;SDS011;65772;51.096;17.006;2023-02-28T04:14:30;17.70;;;9.20;;
76818;SDS011;65772;51.096;17.006;2023-02-28T04:17:00;19.70;;;8.60;;
76818;SDS011;65772;51.096;17.006;2023-02-28T04:19:31;21.90;;;9.00;;
76818;SDS011;65772;51.096;17.006;2023-02-28T04:22:01;20.70;;;9.30;;
76818;SDS011;65772;51.096;17.006;2023-02-28T04:24:32;18.40;;;9.00;;
76818;SDS011;65772;51.096;17.006;2023-02-28T04:27:02;20.10;;;9.40;;
76818;SDS011;65772;51.096;17.006;2023-02-28T04:29:33;21.00;;;8.90;;
76818;SDS011;65772;51.096;17.006;2023-02-28T04:32:04;16.70;;;7.90;;
76818;SDS011;65772;51.096;17.006;2023-02-28T04:34:35;19.60;;;8.50;;
76818;SDS011;65772;51.096;17.006;2023-02-28T04:37:06;18.80;;;8.70;;
76818;SDS011;65772;51.096;17.006;2023-02-28T04:39:40;18.20;;;8.10;;
76818;SDS011;65772;51.096;17.006;2023-02-28T04:42:12;18.50;;;9.00;;
76818;SDS011;65772;51.096;17.006;2023-02-28T04:44:43;18.80;;;8.50;;
76818;SDS011;65772;51.096;17.006;2023-02-28T04:47:14;15.90;;;7.50;;
76818;SDS011;65772;51.096;17.006;2023-02-28T04:49:45;13.70;;;8.00;;
76818;SDS011;65772;51.096;17.006;2023-02-28T04:52:15;22.30;;;7.80;;
76818;SDS011;65772;51.096;17.006;2023-02-28T04:54:46;21.40;;;8.20;;
76818;SDS011;65772;51.096;17.006;2023-02-28T04:57:16;19.40;;;8.80;;
76818;SDS011;65772;51.096;17.006;2023-02-28T04:59:47;13.40;;;7.20;;
76818;SDS011;65772;51.096;17.006;2023-02-28T05:02:17;14.60;;;7.90;;
76818;SDS011;65772;51.096;17.006;2023-02-28T05:04:48;17.10;;;8.20;;
76818;SDS011;65772;51.096;17.006;2023-02-28T05:07:19;17.50;;;8.70;;
76818;SDS011;65772;51.096;17.006;2023-02-28T05:09:50;15.50;;;7.60;;
76818;SDS011;65772;51.096;17.006;2023-02-28T05:12:20;18.40;;;8.30;;
76818;SDS011;65772;51.096;17.006;2023-02-28T05:14:51;18.70;;;8.60;;
76818;SDS011;65772;51.096;17.006;2023-02-28T05:17:23;16.20;;;8.20;;
76818;SDS011;65772;51.096;17.006;2023-02-28T05:19:53;16.10;;;8.30;;
76818;SDS011;65772;51.096;17.006;2023-02-28T05:22:41;15.90;;;7.30;;
76818;SDS011;65772;51.096;17.006;2023-02-28T05:25:13;29.30;;;14.00;;
76818;SDS011;65772;51.096;17.006;2023-02-28T05:27:46;32.40;;;14.80;;
76818;SDS011;65772;51.096;17.006;2023-02-28T05:30:18;20.90;;;9.70;;
76818;SDS011;65772;51.096;17.006;2023-02-28T05:32:50;17.10;;;8.90;;
76818;SDS011;65772;51.096;17.006;2023-02-28T05:37:50;18.30;;;7.60;;
76818;SDS011;65772;51.096;17.006;2023-02-28T05:40:21;15.00;;;7.70;;
76818;SDS011;65772;51.096;17.006;2023-02-28T05:42:51;17.10;;;8.10;;
76818;SDS011;65772;51.096;17.006;2023-02-28T05:45:22;20.00;;;9.50;;
76818;SDS011;65772;51.096;17.006;2023-02-28T05:47:54;15.50;;;7.50;;
76818;SDS011;65772;51.096;17.006;2023-02-28T05:50:25;14.70;;;7.40;;
76818;SDS011;65772;51.096;17.006;2023-02-28T05:52:55;18.90;;;7.80;;
76818;SDS011;65772;51.096;17.006;2023-02-28T05:55:26;15.80;;;7.10;;
76818;SDS011;65772;51.096;17.006;2023-02-28T05:57:56;16.70;;;7.50;;
76818;SDS011;65772;51.096;17.006;2023-02-28T06:00:27;14.00;;;7.50;;
76818;SDS011;65772;51.096;17.006;2023-02-28T06:02:57;11.80;;;7.00;;
76818;SDS011;65772;51.096;17.006;2023-02-28T06:05:29;14.20;;;7.40;;
76818;SDS011;65772;51.096;17.006;2023-02-28T06:08:00;12.20;;;6.50;;
76818;SDS011;65772;51.096;17.006;2023-02-28T06:10:31;15.00;;;7.00;;
76818;SDS011;65772;51.096;17.006;2023-02-28T06:13:03;14.20;;;7.10;;
76818;SDS011;65772;51.096;17.006;2023-02-28T06:15:34;14.80;;;7.90;;
76818;SDS011;65772;51.096;17.006;2023-02-28T06:18:04;14.80;;;7.60;;
76818;SDS011;65772;51.096;17.006;2023-02-28T06:20:35;17.60;;;7.90;;
76818;SDS011;65772;51.096;17.006;2023-02-28T06:23:06;15.90;;;7.60;;
76818;SDS011;65772;51.096;17.006;2023-02-28T06:25:37;15.20;;;7.60;;
76818;SDS011;65772;51.096;17.006;2023-02-28T06:28:07;14.00;;;7.80;;
76818;SDS011;65772;51.096;17.006;2023-02-28T06:30:37;15.70;;;8.30;;
76818;SDS011;65772;51.096;17.006;2023-02-28T06:33:08;14.60;;;7.40;;
76818;SDS011;65772;51.096;17.006;2023-02-28T06:35:39;16.80;;;7.40;;
76818;SDS011;65772;51.096;17.006;2023-02-28T06:38:11;12.70;;;7.80;;
76818;SDS011;65772;51.096;17.006;2023-02-28T06:40:42;14.60;;;7.70;;
76818;SDS011;65772;51.096;17.006;2023-02-28T06:43:13;15.20;;;8.10;;
76818;SDS011;65772;51.096;17.006;2023-02-28T06:45:44;13.00;;;7.20;;
76818;SDS011;65772;51.096;17.006;2023-02-28T06:48:14;14.00;;;8.00;;
76818;SDS011;65772;51.096;17.006;2023-02-28T06:50:45;14.00;;;7.60;;
76818;SDS011;65772;51.096;17.006;2023-02-28T06:53:16;16.00;;;8.70;;
76818;SDS011;65772;51.096;17.006;2023-02-28T06:55:47;16.20;;;7.90;;
76818;SDS011;65772;51.096;17.006;2023-02-28T06:58:18;15.70;;;7.90;;
76818;SDS011;65772;51.096;17.006;2023-02-28T07:00:50;11.70;;;7.00;;
76818;SDS011;65772;51.096;17.006;2023-02-28T07:03:21;13.50;;;8.10;;
76818;SDS011;65772;51.096;17.006;2023-02-28T07:05:51;16.50;;;8.00;;
76818;SDS011;65772;51.096;17.006;2023-02-28T07:08:24;14.90;;;8.30;;
76818;SDS011;65772;51.096;17.006;2023-02-28T07:10:55;14.40;;;8.10;;
76818;SDS011;65772;51.096;17.006;2023-02-28T07:13:26;13.40;;;8.20;;
76818;SDS011;65772;51.096;17.006;2023-02-28T07:15:58;10.40;;;7.10;;
76818;SDS011;65772;51.096;17.006;2023-02-28T07:18:30;17.70;;;8.30;;
76818;SDS011;65772;51.096;17.006;2023-02-28T07:21:02;13.50;;;7.90;;
76818;SDS011;65772;51.096;17.006;2023-02-28T07:23:36;11.50;;;6.70;;
76818;SDS011;65772;51.096;17.006;2023-02-28T07:26:07;11.90;;;6.90;;
76818;SDS011;65772;51.096;17.006;2023-02-28T07:28:43;14.40;;;7.90;;
76818;SDS011;65772;51.096;17.006;2023-02-28T07:31:16;12.60;;;6.50;;
76818;SDS011;65772;51.096;17.006;2023-02-28T07:33:47;14.20;;;6.90;;
76818;SDS011;65772;51.096;17.006;2023-02-28T07:36:17;12.20;;;7.40;;
76818;SDS011;65772;51.096;17.006;2023-02-28T07:38:48;12.30;;;7.20;;
76818;SDS011;65772;51.096;17.006;2023-02-28T07:41:19;15.50;;;8.00;;
76818;SDS011;65772;51.096;17.006;2023-02-28T07:43:52;14.40;;;8.10;;
76818;SDS011;65772;51.096;17.006;2023-02-28T07:46:25;10.90;;;6.20;;
76818;SDS011;65772;51.096;17.006;2023-02-28T07:48:57;12.40;;;7.00;;
76818;SDS011;65772;51.096;17.006;2023-02-28T07:51:28;11.00;;;6.30;;
76818;SDS011;65772;51.096;17.006;2023-02-28T07:53:59;13.70;;;6.90;;
76818;SDS011;65772;51.096;17.006;2023-02-28T07:56:30;11.50;;;6.90;;
76818;SDS011;65772;51.096;17.006;2023-02-28T07:59:00;11.00;;;6.30;;
76818;SDS011;65772;51.096;17.006;2023-02-28T08:01:31;11.70;;;6.60;;
76818;SDS011;65772;51.096;17.006;2023-02-28T08:04:01;11.60;;;7.00;;
76818;SDS011;65772;51.096;17.006;2023-02-28T08:06:32;13.50;;;7.30;;
76818;SDS011;65772;51.096;17.006;2023-02-28T08:09:03;13.90;;;6.60;;
76818;SDS011;65772;51.096;17.006;2023-02-28T08:11:33;14.70;;;7.50;;
76818;SDS011;65772;51.096;17.006;2023-02-28T08:14:05;16.60;;;7.40;;
76818;SDS011;65772;51.096;17.006;2023-02-28T08:16:35;15.60;;;7.90;;
76818;SDS011;65772;51.096;17.006;2023-02-28T08:19:06;12.30;;;6.30;;
76818;SDS011;65772;51.096;17.006;2023-02-28T08:21:37;13.90;;;7.20;;
76818;SDS011;65772;51.096;17.006;2023-02-28T08:24:07;13.50;;;7.20;;
76818;SDS011;65772;51.096;17.006;2023-02-28T08:26:38;15.70;;;7.60;;
76818;SDS011;65772;51.096;17.006;2023-02-28T08:29:08;11.80;;;7.50;;
76818;SDS011;65772;51.096;17.006;2023-02-28T08:31:39;14.50;;;7.80;;
76818;SDS011;65772;51.096;17.006;2023-02-28T08:34:11;14.70;;;8.30;;
76818;SDS011;65772;51.096;17.006;2023-02-28T08:36:43;14.00;;;7.60;;
76818;SDS011;65772;51.096;17.006;2023-02-28T08:39:13;14.40;;;8.00;;
76818;SDS011;65772;51.096;17.006;2023-02-28T08:41:44;15.50;;;7.80;;
76818;SDS011;65772;51.096;17.006;2023-02-28T08:44:22;13.40;;;7.20;;
76818;SDS011;65772;51.096;17.006;2023-02-28T08:46:53;11.60;;;6.40;;
76818;SDS011;65772;51.096;17.006;2023-02-28T08:49:23;10.40;;;6.10;;
76818;SDS011;65772;51.096;17.006;2023-02-28T08:51:54;12.30;;;6.60;;
76818;SDS011;65772;51.096;17.006;2023-02-28T08:54:24;9.40;;;5.90;;
76818;SDS011;65772;51.096;17.006;2023-02-28T08:56:58;9.50;;;5.50;;
76818;SDS011;65772;51.096;17.006;2023-02-28T08:59:29;9.70;;;5.30;;
76818;SDS011;65772;51.096;17.006;2023-02-28T09:02:00;9.50;;;4.00;;
76818;SDS011;65772;51.096;17.006;2023-02-28T09:04:30;7.60;;;4.00;;
76818;SDS011;65772;51.096;17.006;2023-02-28T09:07:02;10.10;;;4.70;;
76818;SDS011;65772;51.096;17.006;2023-02-28T09:09:33;9.30;;;5.00;;
76818;SDS011;65772;51.096;17.006;2023-02-28T09:12:03;10.80;;;4.90;;
76818;SDS011;65772;51.096;17.006;2023-02-28T09:14:34;9.10;;;4.80;;
76818;SDS011;65772;51.096;17.006;2023-02-28T09:17:05;11.50;;;5.30;;
76818;SDS011;65772;51.096;17.006;2023-02-28T09:19:35;9.80;;;4.70;;
76818;SDS011;65772;51.096;17.006;2023-02-28T09:22:06;12.30;;;5.20;;
76818;SDS011;65772;51.096;17.006;2023-02-28T09:24:38;9.70;;;4.90;;
76818;SDS011;65772;51.096;17.006;2023-02-28T09:27:09;8.50;;;4.40;;
76818;SDS011;65772;51.096;17.006;2023-02-28T09:29:39;8.70;;;4.00;;
76818;SDS011;65772;51.096;17.006;2023-02-28T09:32:10;7.20;;;4.00;;
76818;SDS011;65772;51.096;17.006;2023-02-28T09:34:40;7.80;;;4.70;;
76818;SDS011;65772;51.096;17.006;2023-02-28T09:37:11;9.50;;;4.10;;
76818;SDS011;65772;51.096;17.006;2023-02-28T09:39:41;10.00;;;4.70;;
76818;SDS011;65772;51.096;17.006;2023-02-28T09:42:14;8.80;;;4.60;;
76818;SDS011;65772;51.096;17.006;2023-02-28T09:44:52;10.10;;;4.90;;
76818;SDS011;65772;51.096;17.006;2023-02-28T09:47:25;9.00;;;4.90;;
76818;SDS011;65772;51.096;17.006;2023-02-28T09:50:03;9.40;;;4.90;;
76818;SDS011;65772;51.096;17.006;2023-02-28T09:52:46;9.50;;;4.80;;
76818;SDS011;65772;51.096;17.006;2023-02-28T09:55:20;8.50;;;4.50;;
76818;SDS011;65772;51.096;17.006;2023-02-28T09:58:01;8.60;;;4.60;;
76818;SDS011;65772;51.096;17.006;2023-02-28T10:00:33;10.10;;;5.50;;
76818;SDS011;65772;51.096;17.006;2023-02-28T10:03:12;9.70;;;5.10;;
76818;SDS011;65772;51.096;17.006;2023-02-28T10:05:56;10.50;;;4.70;;
76818;SDS011;65772;51.096;17.006;2023-02-28T10:08:33;9.20;;;4.70;;
76818;SDS011;65772;51.096;17.006;2023-02-28T10:11:14;10.00;;;4.40;;
76818;SDS011;65772;51.096;17.006;2023-02-28T10:13:51;9.40;;;5.00;;
76818;SDS011;65772;51.096;17.006;2023-02-28T10:16:30;11.80;;;5.00;;
76818;SDS011;65772;51.096;17.006;2023-02-28T10:19:05;8.50;;;4.60;;
76818;SDS011;65772;51.096;17.006;2023-02-28T10:21:41;9.20;;;5.20;;
76818;SDS011;65772;51.096;17.006;2023-02-28T10:24:19;8.30;;;4.40;;
76818;SDS011;65772;51.096;17.006;2023-02-28T10:26:56;9.10;;;4.40;;
76818;SDS011;65772;51.096;17.006;2023-02-28T10:29:33;8.40;;;3.90;;
76818;SDS011;65772;51.096;17.006;2023-02-28T10:32:03;8.80;;;4.40;;
76818;SDS011;65772;51.096;17.006;2023-02-28T10:34:35;7.50;;;3.70;;
76818;SDS011;65772;51.096;17.006;2023-02-28T10:37:06;7.90;;;4.30;;
76818;SDS011;65772;51.096;17.006;2023-02-28T10:39:39;10.20;;;4.90;;
76818;SDS011;65772;51.096;17.006;2023-02-28T10:42:22;10.10;;;4.90;;
76818;SDS011;65772;51.096;17.006;2023-02-28T10:45:06;10.30;;;5.00;;
76818;SDS011;65772;51.096;17.006;2023-02-28T10:47:52;12.00;;;4.90;;
76818;SDS011;65772;51.096;17.006;2023-02-28T10:50:29;8.40;;;4.80;;
76818;SDS011;65772;51.096;17.006;2023-02-28T10:53:07;10.50;;;4.80;;
76818;SDS011;65772;51.096;17.006;2023-02-28T10:56:16;8.20;;;4.70;;
76818;SDS011;65772;51.096;17.006;2023-02-28T10:58:50;10.10;;;5.00;;
76818;SDS011;65772;51.096;17.006;2023-02-28T11:01:24;10.10;;;5.30;;
76818;SDS011;65772;51.096;17.006;2023-02-28T11:04:03;9.40;;;4.90;;
76818;SDS011;65772;51.096;17.006;2023-02-28T11:06:51;12.20;;;6.00;;
76818;SDS011;65772;51.096;17.006;2023-02-28T11:09:28;8.90;;;4.80;;
76818;SDS011;65772;51.096;17.006;2023-02-28T11:12:03;12.60;;;5.70;;
76818;SDS011;65772;51.096;17.006;2023-02-28T11:14:39;11.90;;;6.40;;
76818;SDS011;65772;51.096;17.006;2023-02-28T11:17:20;10.20;;;5.70;;
76818;SDS011;65772;51.096;17.006;2023-02-28T11:19:53;9.40;;;5.40;;
76818;SDS011;65772;51.096;17.006;2023-02-28T11:22:28;11.10;;;6.30;;
76818;SDS011;65772;51.096;17.006;2023-02-28T11:25:06;10.40;;;5.80;;
76818;SDS011;65772;51.096;17.006;2023-02-28T11:27:42;13.00;;;5.60;;
76818;SDS011;65772;51.096;17.006;2023-02-28T11:30:30;9.70;;;6.10;;
76818;SDS011;65772;51.096;17.006;2023-02-28T11:33:18;11.40;;;5.40;;
76818;SDS011;65772;51.096;17.006;2023-02-28T11:35:57;9.50;;;5.30;;
76818;SDS011;65772;51.096;17.006;2023-02-28T11:38:37;11.10;;;5.50;;
76818;SDS011;65772;51.096;17.006;2023-02-28T11:41:13;11.80;;;5.60;;
76818;SDS011;65772;51.096;17.006;2023-02-28T11:44:00;9.00;;;5.50;;
76818;SDS011;65772;51.096;17.006;2023-02-28T11:46:54;10.20;;;5.30;;
76818;SDS011;65772;51.096;17.006;2023-02-28T11:49:34;8.90;;;5.30;;
76818;SDS011;65772;51.096;17.006;2023-02-28T11:52:13;12.70;;;6.20;;
76818;SDS011;65772;51.096;17.006;2023-02-28T11:55:04;10.10;;;6.00;;
76818;SDS011;65772;51.096;17.006;2023-02-28T11:57:48;13.60;;;6.30;;
76818;SDS011;65772;51.096;17.006;2023-02-28T12:00:40;12.50;;;6.80;;
76818;SDS011;65772;51.096;17.006;2023-02-28T12:03:23;13.20;;;6.20;;
76818;SDS011;65772;51.096;17.006;2023-02-28T12:06:03;12.30;;;6.40;;
76818;SDS011;65772;51.096;17.006;2023-02-28T12:08:46;12.60;;;6.60;;
76818;SDS011;65772;51.096;17.006;2023-02-28T12:11:26;11.50;;;6.40;;
76818;SDS011;65772;51.096;17.006;2023-02-28T12:14:18;12.80;;;6.30;;
76818;SDS011;65772;51.096;17.006;2023-02-28T12:17:01;12.60;;;6.40;;
76818;SDS011;65772;51.096;17.006;2023-02-28T12:19:42;11.50;;;6.00;;
76818;SDS011;65772;51.096;17.006;2023-02-28T12:22:25;9.90;;;5.60;;
76818;SDS011;65772;51.096;17.006;2023-02-28T12:28:03;11.50;;;5.90;;
76818;SDS011;65772;51.096;17.006;2023-02-28T12:30:37;12.10;;;5.80;;
76818;SDS011;65772;51.096;17.006;2023-02-28T12:33:14;11.30;;;6.50;;
76818;SDS011;65772;51.096;17.006;2023-02-28T12:35:51;12.50;;;6.20;;
76818;SDS011;65772;51.096;17.006;2023-02-28T12:38:25;12.60;;;6.50;;
76818;SDS011;65772;51.096;17.006;2023-02-28T12:41:00;14.60;;;6.60;;
76818;SDS011;65772;51.096;17.006;2023-02-28T12:43:34;12.50;;;6.80;;
76818;SDS011;65772;51.096;17.006;2023-02-28T12:46:12;13.50;;;7.50;;
76818;SDS011;65772;51.096;17.006;2023-02-28T12:48:48;11.80;;;6.90;;
76818;SDS011;65772;51.096;17.006;2023-02-28T12:51:23;12.80;;;7.40;;
76818;SDS011;65772;51.096;17.006;2023-02-28T12:53:59;16.80;;;7.20;;
76818;SDS011;65772;51.096;17.006;2023-02-28T12:56:38;15.90;;;7.60;;
76818;SDS011;65772;51.096;17.006;2023-02-28T12:59:17;15.20;;;7.60;;
76818;SDS011;65772;51.096;17.006;2023-02-28T13:02:02;11.90;;;6.30;;
76818;SDS011;65772;51.096;17.006;2023-02-28T13:05:04;15.30;;;8.10;;
76818;SDS011;65772;51.096;17.006;2023-02-28T13:08:01;14.40;;;7.70;;
76818;SDS011;65772;51.096;17.006;2023-02-28T13:10:52;14.60;;;7.10;;
76818;SDS011;65772;51.096;17.006;2023-02-28T13:13:24;13.50;;;6.90;;
76818;SDS011;65772;51.096;17.006;2023-02-28T13:15:58;14.40;;;6.90;;
76818;SDS011;65772;51.096;17.006;2023-02-28T13:18:32;14.60;;;7.40;;
76818;SDS011;65772;51.096;17.006;2023-02-28T13:21:05;16.30;;;7.90;;
76818;SDS011;65772;51.096;17.006;2023-02-28T13:23:40;18.10;;;8.10;;
76818;SDS011;65772;51.096;17.006;2023-02-28T13:29:44;15.20;;;7.10;;
76818;SDS011;65772;51.096;17.006;2023-02-28T13:32:32;13.90;;;7.00;;
76818;SDS011;65772;51.096;17.006;2023-02-28T13:35:16;11.80;;;6.00;;
76818;SDS011;65772;51.096;17.006;2023-02-28T13:44:11;12.30;;;6.60;;
76818;SDS011;65772;51.096;17.006;2023-02-28T13:49:53;13.00;;;6.70;;
76818;SDS011;65772;51.096;17.006;2023-02-28T13:52:46;13.30;;;6.70;;
76818;SDS011;65772;51.096;17.006;2023-02-28T13:55:27;16.50;;;6.60;;
76818;SDS011;65772;51.096;17.006;2023-02-28T13:58:04;13.50;;;6.20;;
76818;SDS011;65772;51.096;17.006;2023-02-28T14:00:58;12.80;;;6.60;;
76818;SDS011;65772;51.096;17.006;2023-02-28T14:03:56;11.30;;;6.40;;
76818;SDS011;65772;51.096;17.006;2023-02-28T14:06:38;12.10;;;6.20;;
76818;SDS011;65772;51.096;17.006;2023-02-28T14:09:21;10.60;;;6.30;;
76818;SDS011;65772;51.096;17.006;2023-02-28T14:11:55;12.60;;;7.10;;
76818;SDS011;65772;51.096;17.006;2023-02-28T14:17:30;14.00;;;6.60;;
76818;SDS011;65772;51.096;17.006;2023-02-28T14:20:02;24.00;;;11.40;;
76818;SDS011;65772;51.096;17.006;2023-02-28T14:22:39;17.90;;;8.00;;
76818;SDS011;65772;51.096;17.006;2023-02-28T14:25:22;15.30;;;7.10;;
76818;SDS011;65772;51.096;17.006;2023-02-28T14:28:04;13.90;;;6.80;;
76818;SDS011;65772;51.096;17.006;2023-02-28T14:30:52;13.70;;;7.00;;
76818;SDS011;65772;51.096;17.006;2023-02-28T14:33:34;13.90;;;6.90;;
76818;SDS011;65772;51.096;17.006;2023-02-28T14:36:16;12.90;;;7.00;;
76818;SDS011;65772;51.096;17.006;2023-02-28T14:38:51;12.80;;;7.20;;
76818;SDS011;65772;51.096;17.006;2023-02-28T14:41:29;14.20;;;7.50;;
76818;SDS011;65772;51.096;17.006;2023-02-28T14:44:03;12.30;;;7.40;;
76818;SDS011;65772;51.096;17.006;2023-02-28T14:46:45;43.50;;;23.50;;
76818;SDS011;65772;51.096;17.006;2023-02-28T14:49:19;28.80;;;10.40;;
76818;SDS011;65772;51.096;17.006;2023-02-28T14:52:02;15.70;;;8.60;;
76818;SDS011;65772;51.096;17.006;2023-02-28T14:54:37;12.20;;;7.00;;
76818;SDS011;65772;51.096;17.006;2023-02-28T14:57:21;12.50;;;7.40;;
76818;SDS011;65772;51.096;17.006;2023-02-28T15:00:03;14.10;;;7.50;;
76818;SDS011;65772;51.096;17.006;2023-02-28T15:02:42;16.00;;;8.20;;
76818;SDS011;65772;51.096;17.006;2023-02-28T15:05:21;13.00;;;6.50;;
76818;SDS011;65772;51.096;17.006;2023-02-28T15:08:02;13.30;;;7.90;;
76818;SDS011;65772;51.096;17.006;2023-02-28T15:10:35;14.90;;;7.60;;
76818;SDS011;65772;51.096;17.006;2023-02-28T15:13:10;15.80;;;8.40;;
76818;SDS011;65772;51.096;17.006;2023-02-28T15:15:44;13.90;;;7.50;;
76818;SDS011;65772;51.096;17.006;2023-02-28T15:18:31;17.70;;;8.50;;
76818;SDS011;65772;51.096;17.006;2023-02-28T15:21:11;12.40;;;7.50;;
76818;SDS011;65772;51.096;17.006;2023-02-28T15:23:46;14.90;;;7.10;;
76818;SDS011;65772;51.096;17.006;2023-02-28T15:26:21;14.80;;;7.70;;
76818;SDS011;65772;51.096;17.006;2023-02-28T15:28:57;13.40;;;8.00;;
76818;SDS011;65772;51.096;17.006;2023-02-28T15:31:31;34.50;;;19.60;;
76818;SDS011;65772;51.096;17.006;2023-02-28T15:34:26;13.40;;;8.10;;
76818;SDS011;65772;51.096;17.006;2023-02-28T15:40:10;15.10;;;7.10;;
76818;SDS011;65772;51.096;17.006;2023-02-28T15:42:56;13.40;;;7.60;;
76818;SDS011;65772;51.096;17.006;2023-02-28T15:45:31;13.50;;;7.40;;